ADDS METAR Data

Data at: 2308 UTC 15 Aug 2018

METAR for:KJFK (New York/Kennedy Int, NY, US)
Text:KJFK 152251Z 24011KT 10SM FEW060 FEW100 SCT250 29/22 A2992 RMK AO2 SLP131 T02890217
Temperature: 28.9°C ( 84°F)
Dewpoint: 21.7°C ( 71°F) [RH = 65%]
Pressure (altimeter):29.92 inches Hg (1013.3 mb) [Sea level pressure: 1013.1 mb]
Winds:from the WSW (240 degrees) at 13 MPH (11 knots; 5.7 m/s)
Visibility:10 or more sm (16+ km)
Ceiling:at least 12,000 feet AGL
Clouds: few clouds at 6000 feet AGL, few clouds at 10000 feet AGL, scattered clouds at 25000 feet AGL